Time;durP1;ratioP1;P1;durP2;ratioP2;P2;SDS_P1;SDS_P2;PMS_P1;PMS_P2;Temp;Humidity;BMP_temperature;BMP_pressure;BME280_temperature;BME280_humidity;BME280_pressure;Samples;Min_cycle;Max_cycle;Signal;HPM_P1;HPM_P2
2022/03/29 00:01:56;;;;;;;24.95;13.63;;;7.50;99.90;;;;;;5015291;28;20041;-66
2022/03/29 00:04:22;;;;;;;29.13;14.82;;;7.50;99.90;;;;;;5000190;28;20054;-66
2022/03/29 00:06:48;;;;;;;20.70;13.45;;;7.50;99.90;;;;;;5036077;28;20041;-66
2022/03/29 00:09:14;;;;;;;25.92;13.88;;;7.50;99.90;;;;;;5019756;28;20071;-66
2022/03/29 00:11:40;;;;;;;21.85;12.73;;;7.50;99.90;;;;;;5038421;28;20092;-66
2022/03/29 00:14:06;;;;;;;25.27;12.88;;;7.50;99.90;;;;;;5038204;28;20045;-66
2022/03/29 00:16:32;;;;;;;24.90;13.73;;;7.60;99.90;;;;;;5018839;28;20090;-66
2022/03/29 00:18:58;;;;;;;23.30;12.52;;;7.60;99.90;;;;;;5018635;28;20040;-66
2022/03/29 00:21:23;;;;;;;20.17;13.32;;;7.60;99.90;;;;;;5001973;28;20054;-66
2022/03/29 00:23:49;;;;;;;17.85;12.68;;;7.60;99.90;;;;;;5020333;28;20040;-66
2022/03/29 00:26:16;;;;;;;29.33;14.68;;;7.60;99.90;;;;;;5020447;28;20056;-67
2022/03/29 00:28:42;;;;;;;17.67;12.50;;;7.60;99.90;;;;;;5020073;28;20068;-66
2022/03/29 00:31:08;;;;;;;20.02;12.52;;;7.60;99.90;;;;;;5038175;28;20123;-66
2022/03/29 00:33:33;;;;;;;23.75;13.38;;;7.70;99.90;;;;;;5033298;28;20055;-67
2022/03/29 00:35:59;;;;;;;19.65;13.60;;;7.70;99.90;;;;;;5016438;28;20103;-66
2022/03/29 00:38:24;;;;;;;19.90;11.65;;;7.70;99.90;;;;;;5018763;28;20045;-66
2022/03/29 00:40:50;;;;;;;20.58;12.35;;;7.70;99.90;;;;;;5037362;28;20056;-66
2022/03/29 00:43:15;;;;;;;22.63;13.98;;;7.80;99.90;;;;;;5038037;28;20102;-66
2022/03/29 00:45:42;;;;;;;21.42;14.50;;;7.80;99.90;;;;;;5037977;28;20049;-66
2022/03/29 00:48:08;;;;;;;18.33;10.88;;;7.80;99.90;;;;;;5015545;28;20045;-66
2022/03/29 00:50:37;;;;;;;19.50;12.27;;;7.80;99.90;;;;;;4981070;28;20405;-66
2022/03/29 00:53:03;;;;;;;25.70;15.00;;;7.90;99.90;;;;;;4998539;28;20050;-66
2022/03/29 00:55:30;;;;;;;24.58;14.38;;;7.80;99.90;;;;;;4980459;28;20050;-67
2022/03/29 00:57:56;;;;;;;22.52;12.57;;;7.80;99.90;;;;;;4997958;28;20085;-66
2022/03/29 01:00:22;;;;;;;21.45;13.02;;;7.80;99.90;;;;;;4980453;28;20053;-66
2022/03/29 01:02:47;;;;;;;17.20;10.25;;;7.80;99.90;;;;;;4981810;28;20065;-66
2022/03/29 01:05:13;;;;;;;16.27;10.45;;;7.90;99.90;;;;;;4998184;28;20053;-66
2022/03/29 01:07:39;;;;;;;18.70;11.20;;;7.90;99.90;;;;;;4980697;28;20060;-67
2022/03/29 01:10:06;;;;;;;23.23;13.65;;;8.00;99.90;;;;;;4997674;28;20561;-68
2022/03/29 01:12:33;;;;;;;14.00;10.50;;;8.00;99.90;;;;;;4981047;28;20066;-65
2022/03/29 01:15:00;;;;;;;18.25;10.82;;;8.00;99.90;;;;;;4980937;28;20917;-65
2022/03/29 01:17:43;;;;;;;17.00;11.43;;;8.00;99.90;;;;;;4979835;28;20068;-66
2022/03/29 01:20:11;;;;;;;21.95;12.75;;;8.00;99.90;;;;;;5005602;28;20034;-66
2022/03/29 01:22:40;;;;;;;22.05;12.68;;;8.40;99.90;;;;;;5017815;28;20053;-65
2022/03/29 01:25:08;;;;;;;19.58;11.20;;;8.00;99.90;;;;;;5017043;28;20056;-65
2022/03/29 01:27:34;;;;;;;15.80;10.68;;;8.00;99.90;;;;;;4999170;28;20057;-66
2022/03/29 01:30:00;;;;;;;18.02;12.20;;;8.00;99.90;;;;;;4999694;28;20049;-65
2022/03/29 01:32:29;;;;;;;24.75;13.27;;;8.10;99.90;;;;;;5018118;28;20057;-65
2022/03/29 01:34:57;;;;;;;25.33;14.80;;;8.10;99.90;;;;;;5017678;28;20052;-65
2022/03/29 01:37:23;;;;;;;23.23;13.48;;;8.10;99.90;;;;;;4999616;28;20830;-65
2022/03/29 01:39:49;;;;;;;20.35;12.20;;;7.90;99.90;;;;;;5001126;28;20834;-65
2022/03/29 01:42:16;;;;;;;18.48;13.43;;;7.90;99.90;;;;;;5001011;28;20050;-65
2022/03/29 01:44:42;;;;;;;20.17;12.73;;;7.90;99.90;;;;;;5000500;28;20060;-66
2022/03/29 01:47:08;;;;;;;18.67;12.15;;;7.80;99.90;;;;;;4999549;28;20675;-65
2022/03/29 01:49:34;;;;;;;17.15;12.13;;;7.90;99.90;;;;;;5018274;28;20154;-66
2022/03/29 01:52:01;;;;;;;20.77;12.48;;;7.90;99.90;;;;;;4999573;28;20063;-66
2022/03/29 01:54:26;;;;;;;22.88;14.70;;;7.90;99.90;;;;;;5017909;28;20449;-67
2022/03/29 01:56:52;;;;;;;23.42;13.15;;;7.80;99.90;;;;;;5000261;28;20047;-67
2022/03/29 01:59:18;;;;;;;24.67;15.05;;;7.80;99.90;;;;;;5000453;28;20059;-67
2022/03/29 02:01:45;;;;;;;24.13;15.52;;;7.70;99.90;;;;;;5018416;28;20154;-67
2022/03/29 02:04:12;;;;;;;24.48;15.20;;;7.60;99.90;;;;;;5017694;28;20504;-65
2022/03/29 02:06:39;;;;;;;21.85;15.05;;;7.60;99.90;;;;;;5017201;28;20045;-65
2022/03/29 02:09:08;;;;;;;20.33;15.20;;;7.50;99.90;;;;;;5017143;28;20080;-65
2022/03/29 02:11:35;;;;;;;25.63;15.43;;;7.50;99.90;;;;;;5000214;28;20099;-65
2022/03/29 02:14:01;;;;;;;23.55;15.05;;;7.50;99.90;;;;;;5029620;28;20052;-65
2022/03/29 02:16:27;;;;;;;20.23;15.30;;;7.50;99.90;;;;;;5037871;28;20044;-67
2022/03/29 02:18:52;;;;;;;22.00;13.30;;;7.60;99.90;;;;;;5019950;28;20643;-66
2022/03/29 02:21:18;;;;;;;24.88;14.80;;;7.50;99.90;;;;;;4984882;28;20050;-66
2022/03/29 02:23:44;;;;;;;22.60;14.07;;;7.50;99.90;;;;;;4980262;28;20076;-66
2022/03/29 02:26:10;;;;;;;24.52;14.73;;;7.50;99.90;;;;;;4997213;28;20116;-67
2022/03/29 02:28:35;;;;;;;24.17;14.57;;;7.50;99.90;;;;;;5004816;28;20212;-66
2022/03/29 02:31:02;;;;;;;27.45;14.90;;;7.60;99.90;;;;;;5003948;28;20511;-66
2022/03/29 02:33:27;;;;;;;26.83;15.45;;;7.50;99.90;;;;;;5018627;28;20059;-66
2022/03/29 02:35:53;;;;;;;27.65;16.20;;;7.60;99.90;;;;;;5018880;28;20045;-67
2022/03/29 02:38:20;;;;;;;25.50;15.32;;;7.50;99.90;;;;;;5014183;28;20230;-67
2022/03/29 02:40:46;;;;;;;24.33;14.57;;;7.50;99.90;;;;;;5018204;28;20064;-66
2022/03/29 02:43:12;;;;;;;25.75;12.88;;;7.50;99.90;;;;;;5005873;28;20076;-67
2022/03/29 02:45:37;;;;;;;21.45;13.85;;;7.50;99.90;;;;;;5024602;28;20048;-66
2022/03/29 02:48:03;;;;;;;19.83;13.25;;;7.50;99.90;;;;;;5036284;28;20118;-66
2022/03/29 02:50:29;;;;;;;25.33;16.13;;;7.50;99.90;;;;;;4995056;28;20049;-66
2022/03/29 02:52:57;;;;;;;24.50;14.43;;;7.50;99.90;;;;;;4978739;28;20050;-67
2022/03/29 02:55:25;;;;;;;21.67;13.07;;;7.50;99.90;;;;;;4978185;28;20056;-66
2022/03/29 02:57:51;;;;;;;24.38;16.10;;;7.50;99.90;;;;;;4996178;28;20057;-66
2022/03/29 03:00:17;;;;;;;28.98;16.17;;;7.50;99.90;;;;;;4996794;28;20722;-66
2022/03/29 03:02:48;;;;;;;37.88;16.83;;;7.50;99.90;;;;;;4978788;28;20743;-66
2022/03/29 03:05:14;;;;;;;25.33;15.60;;;7.50;99.90;;;;;;4978892;28;20046;-67
2022/03/29 03:07:42;;;;;;;22.98;14.32;;;7.50;99.90;;;;;;4995053;28;20060;-67
2022/03/29 03:10:08;;;;;;;30.63;16.30;;;7.50;99.90;;;;;;5020350;28;20527;-66
2022/03/29 03:12:35;;;;;;;27.05;16.63;;;7.50;99.90;;;;;;5016250;28;20148;-66
2022/03/29 03:15:01;;;;;;;24.90;14.10;;;7.50;99.90;;;;;;5015716;28;20037;-66
2022/03/29 03:17:26;;;;;;;23.42;14.98;;;7.40;99.90;;;;;;5015038;28;20099;-67
2022/03/29 03:19:52;;;;;;;23.55;16.20;;;7.40;99.90;;;;;;4997458;28;20049;-66
2022/03/29 03:22:17;;;;;;;25.45;14.43;;;7.40;99.90;;;;;;5016675;28;20501;-66
2022/03/29 03:24:43;;;;;;;26.92;14.35;;;7.50;99.90;;;;;;5007669;28;20046;-66
2022/03/29 03:27:08;;;;;;;21.40;12.93;;;7.50;99.90;;;;;;5000443;28;20085;-66
2022/03/29 03:29:34;;;;;;;20.63;13.23;;;7.50;99.90;;;;;;4981835;28;20227;-67
2022/03/29 03:32:00;;;;;;;19.58;12.30;;;7.50;99.90;;;;;;4999828;28;20497;-66
2022/03/29 03:34:26;;;;;;;22.75;12.25;;;7.50;99.90;;;;;;4999780;28;20046;-66
2022/03/29 03:36:51;;;;;;;26.13;14.60;;;7.60;99.90;;;;;;4982623;28;20058;-66
2022/03/29 03:39:18;;;;;;;22.20;13.88;;;7.60;99.90;;;;;;4999977;28;20041;-66
2022/03/29 03:41:44;;;;;;;27.98;15.98;;;7.60;99.90;;;;;;4999610;28;20366;-66
2022/03/29 03:44:11;;;;;;;25.92;14.65;;;7.60;99.90;;;;;;4999720;28;20497;-66
2022/03/29 03:46:37;;;;;;;25.48;15.60;;;7.60;99.90;;;;;;4999953;28;20049;-66
2022/03/29 03:49:02;;;;;;;24.58;14.55;;;7.60;99.90;;;;;;5000383;28;20061;-67
2022/03/29 03:51:28;;;;;;;26.77;17.65;;;7.50;99.90;;;;;;4982211;28;20048;-66
2022/03/29 03:53:54;;;;;;;23.95;14.43;;;7.40;99.90;;;;;;4979949;28;20056;-66
2022/03/29 03:56:20;;;;;;;20.83;13.50;;;7.40;99.90;;;;;;4999987;28;20050;-66
2022/03/29 03:58:45;;;;;;;27.40;15.32;;;7.40;99.90;;;;;;4982118;28;20559;-67
2022/03/29 04:01:12;;;;;;;27.95;14.90;;;7.50;99.90;;;;;;5000335;28;20061;-66
2022/03/29 04:03:38;;;;;;;25.17;14.70;;;7.50;99.90;;;;;;5000063;28;20061;-66
2022/03/29 04:06:04;;;;;;;24.42;14.80;;;7.40;99.90;;;;;;4999366;28;20052;-66
2022/03/29 04:08:29;;;;;;;26.58;13.07;;;7.40;99.90;;;;;;4999470;28;20400;-66
2022/03/29 04:10:56;;;;;;;23.92;15.27;;;7.40;99.90;;;;;;4981869;28;20084;-66
2022/03/29 04:13:22;;;;;;;24.88;14.93;;;7.40;99.90;;;;;;4998995;28;20145;-66
2022/03/29 04:15:48;;;;;;;26.17;14.15;;;7.40;99.90;;;;;;4999574;28;20042;-66
2022/03/29 04:18:14;;;;;;;24.55;16.10;;;7.40;99.90;;;;;;4999273;28;20050;-66
2022/03/29 04:20:40;;;;;;;22.42;14.90;;;7.50;99.90;;;;;;4999456;28;20053;-66
2022/03/29 04:23:07;;;;;;;22.05;14.55;;;7.50;99.90;;;;;;5000286;28;20049;-67
2022/03/29 04:25:33;;;;;;;20.35;12.35;;;7.50;99.90;;;;;;4982247;28;20065;-67
2022/03/29 04:27:59;;;;;;;24.17;12.30;;;7.60;99.90;;;;;;4999927;28;20046;-66
2022/03/29 04:30:24;;;;;;;27.38;15.77;;;7.70;99.90;;;;;;4999215;28;20067;-67
2022/03/29 04:32:50;;;;;;;19.75;12.00;;;7.70;99.90;;;;;;4998748;28;20413;-67
2022/03/29 04:35:16;;;;;;;26.63;15.10;;;7.70;99.90;;;;;;4999466;28;20192;-66
2022/03/29 04:37:42;;;;;;;25.15;13.85;;;7.70;99.90;;;;;;4999149;28;20759;-66
2022/03/29 04:40:09;;;;;;;27.67;14.75;;;7.70;99.90;;;;;;4998982;28;20052;-66
2022/03/29 04:42:45;;;;;;;22.25;14.57;;;7.70;99.90;;;;;;4999313;28;20133;-66
2022/03/29 04:45:12;;;;;;;23.98;13.85;;;7.60;99.90;;;;;;4999004;28;20124;-67
2022/03/29 04:47:38;;;;;;;22.90;14.57;;;7.70;99.90;;;;;;4980030;28;20042;-66
2022/03/29 04:50:05;;;;;;;20.85;12.30;;;7.60;99.90;;;;;;4998249;28;20157;-67
2022/03/29 04:52:31;;;;;;;31.00;15.88;;;7.60;99.90;;;;;;4997814;28;20049;-66
2022/03/29 04:54:56;;;;;;;24.33;15.55;;;7.50;99.90;;;;;;4980315;28;20103;-66
2022/03/29 04:57:22;;;;;;;24.73;15.93;;;7.50;99.90;;;;;;4998040;28;20046;-67
2022/03/29 04:59:47;;;;;;;26.02;14.73;;;7.60;99.90;;;;;;4998325;28;20374;-67
2022/03/29 05:02:13;;;;;;;25.40;15.20;;;7.60;99.90;;;;;;4997765;28;20054;-66
2022/03/29 05:04:38;;;;;;;26.60;15.20;;;7.60;99.90;;;;;;4998481;28;20042;-66
2022/03/29 05:07:04;;;;;;;28.00;15.27;;;7.60;99.90;;;;;;4981168;28;20758;-66
2022/03/29 05:09:29;;;;;;;26.67;16.08;;;7.60;99.90;;;;;;4997769;28;20607;-66
2022/03/29 05:11:57;;;;;;;23.27;15.05;;;7.50;99.90;;;;;;4998842;28;20513;-66
2022/03/29 05:14:22;;;;;;;18.17;12.30;;;7.50;99.90;;;;;;4998070;28;20068;-66
2022/03/29 05:16:48;;;;;;;31.55;15.43;;;7.50;99.90;;;;;;4980038;28;20788;-66
2022/03/29 05:19:14;;;;;;;23.48;15.93;;;7.60;99.90;;;;;;4980440;28;20068;-66
2022/03/29 05:21:39;;;;;;;27.73;14.27;;;7.50;99.90;;;;;;4980447;28;20046;-66
2022/03/29 05:24:05;;;;;;;30.13;15.68;;;7.50;99.90;;;;;;5017022;28;20148;-66
2022/03/29 05:26:31;;;;;;;21.33;12.32;;;7.50;99.90;;;;;;5017606;28;20045;-66
2022/03/29 05:28:56;;;;;;;23.40;13.43;;;7.50;99.90;;;;;;5016767;28;20041;-66
2022/03/29 05:31:22;;;;;;;23.88;13.60;;;7.50;99.90;;;;;;4998898;28;20049;-66
2022/03/29 05:33:48;;;;;;;20.13;14.68;;;7.60;99.90;;;;;;5017440;28;20050;-66
2022/03/29 05:36:13;;;;;;;24.45;16.55;;;7.60;99.90;;;;;;5016709;28;20048;-66
2022/03/29 05:38:40;;;;;;;21.95;14.55;;;7.60;99.90;;;;;;5015105;28;20049;-66
2022/03/29 05:41:05;;;;;;;19.35;11.15;;;7.60;99.90;;;;;;5017613;28;20046;-66
2022/03/29 05:43:31;;;;;;;23.80;14.20;;;7.70;99.90;;;;;;5016637;28;20059;-67
2022/03/29 05:48:53;;;;;;;24.45;13.82;;;7.80;99.90;;;;;;5015639;28;20049;-66
2022/03/29 05:51:20;;;;;;;26.08;13.45;;;7.80;99.90;;;;;;5012736;28;20033;-66
2022/03/29 05:53:46;;;;;;;24.20;13.40;;;7.90;99.90;;;;;;5015638;28;20049;-66
2022/03/29 05:56:11;;;;;;;25.08;13.50;;;7.90;99.90;;;;;;5015778;28;20044;-66
2022/03/29 05:58:37;;;;;;;22.20;15.43;;;7.90;99.90;;;;;;4995984;28;20056;-66
2022/03/29 06:01:02;;;;;;;23.73;15.00;;;7.90;99.90;;;;;;4997754;28;20136;-66
2022/03/29 06:03:28;;;;;;;26.40;12.27;;;7.90;99.90;;;;;;5011622;28;20048;-67
2022/03/29 06:05:53;;;;;;;24.92;13.50;;;8.00;99.90;;;;;;4994266;28;20040;-66
2022/03/29 06:08:19;;;;;;;22.30;13.52;;;8.00;99.90;;;;;;5011873;28;20069;-67
2022/03/29 06:10:44;;;;;;;22.58;12.90;;;8.00;99.90;;;;;;5010016;28;20419;-66
2022/03/29 06:13:12;;;;;;;27.23;14.57;;;8.10;99.90;;;;;;5009873;28;20151;-67
2022/03/29 06:15:38;;;;;;;25.88;15.38;;;8.10;99.90;;;;;;5010109;28;20170;-67
2022/03/29 06:18:04;;;;;;;22.33;13.48;;;8.10;99.90;;;;;;4995353;28;20773;-67
2022/03/29 06:20:30;;;;;;;20.55;13.25;;;8.20;99.90;;;;;;4995227;28;20077;-67
2022/03/29 06:22:56;;;;;;;29.83;15.65;;;8.20;99.90;;;;;;4994566;28;20057;-67
2022/03/29 06:25:21;;;;;;;25.58;13.55;;;8.30;99.90;;;;;;4993735;28;20048;-66
2022/03/29 06:27:48;;;;;;;25.30;13.10;;;8.30;99.90;;;;;;4993408;28;20898;-67
2022/03/29 06:30:14;;;;;;;23.15;13.00;;;8.30;99.90;;;;;;4994052;28;20504;-67
2022/03/29 06:32:50;;;;;;;28.67;14.93;;;8.30;99.90;;;;;;4993533;28;20049;-67
2022/03/29 06:35:23;;;;;;;27.58;15.45;;;8.30;99.90;;;;;;4993295;28;20045;-66
2022/03/29 06:37:55;;;;;;;30.02;15.77;;;8.30;99.90;;;;;;5012918;28;20049;-66
2022/03/29 06:40:21;;;;;;;28.63;16.08;;;8.40;99.90;;;;;;5012588;28;20049;-67
2022/03/29 06:42:48;;;;;;;22.52;14.27;;;8.40;99.90;;;;;;5012820;28;20033;-66
2022/03/29 06:45:13;;;;;;;24.23;14.70;;;8.40;99.90;;;;;;5013455;28;20041;-66
2022/03/29 06:47:39;;;;;;;25.85;14.75;;;8.50;99.90;;;;;;5013302;28;20134;-66
2022/03/29 06:50:05;;;;;;;21.85;12.80;;;8.50;99.90;;;;;;4996440;28;20047;-66
2022/03/29 06:52:38;;;;;;;21.73;12.80;;;8.50;99.90;;;;;;5012259;28;20073;-66
2022/03/29 06:55:07;;;;;;;26.38;13.73;;;8.50;99.90;;;;;;5010689;28;20152;-66
2022/03/29 06:57:33;;;;;;;23.67;15.48;;;8.60;99.90;;;;;;4994497;28;20552;-67
2022/03/29 06:59:59;;;;;;;22.70;13.07;;;8.60;99.90;;;;;;5015643;28;20160;-66
2022/03/29 07:02:25;;;;;;;27.30;16.20;;;8.60;99.90;;;;;;5015496;28;20052;-67
2022/03/29 07:04:51;;;;;;;28.23;15.32;;;8.10;99.90;;;;;;5016485;28;20076;-67
2022/03/29 07:07:17;;;;;;;26.02;15.13;;;8.20;99.90;;;;;;5015704;28;20148;-66
2022/03/29 07:12:30;;;;;;;29.88;18.17;;;8.20;99.90;;;;;;4999554;28;20167;-66
2022/03/29 07:15:03;;;;;;;31.58;19.52;;;8.20;99.90;;;;;;4997109;28;20045;-66
2022/03/29 07:17:29;;;;;;;27.83;17.25;;;8.20;99.90;;;;;;5015997;28;20037;-67
2022/03/29 07:19:54;;;;;;;26.23;14.60;;;8.20;99.90;;;;;;4997282;28;20053;-67
2022/03/29 07:22:23;;;;;;;24.25;15.65;;;8.20;99.90;;;;;;5015154;28;20083;-66
2022/03/29 07:24:49;;;;;;;30.17;16.08;;;8.20;99.90;;;;;;5012527;28;20158;-66
2022/03/29 07:27:14;;;;;;;36.83;17.60;;;8.30;99.90;;;;;;5010387;28;20935;-67
2022/03/29 07:29:40;;;;;;;24.48;14.63;;;8.30;99.90;;;;;;4994460;28;20058;-67
2022/03/29 07:32:06;;;;;;;31.95;17.50;;;8.40;99.90;;;;;;5011558;28;20099;-67
2022/03/29 07:34:35;;;;;;;30.58;16.10;;;8.40;99.90;;;;;;5017004;28;20049;-67
2022/03/29 07:37:02;;;;;;;28.70;17.30;;;8.40;99.90;;;;;;4998348;28;20127;-67
2022/03/29 07:39:28;;;;;;;32.03;16.23;;;8.40;99.90;;;;;;5019364;28;20037;-67
2022/03/29 07:41:55;;;;;;;26.50;15.60;;;8.40;99.90;;;;;;5017635;28;20776;-67
2022/03/29 07:44:21;;;;;;;30.10;16.02;;;8.40;99.90;;;;;;5017351;28;20058;-68
2022/03/29 07:46:46;;;;;;;28.00;17.13;;;8.50;99.90;;;;;;5016823;28;20775;-67
2022/03/29 07:49:12;;;;;;;24.15;16.13;;;8.50;99.90;;;;;;5000115;28;20903;-68
2022/03/29 07:51:38;;;;;;;25.92;14.25;;;8.50;99.90;;;;;;5017687;28;20842;-66
2022/03/29 07:54:04;;;;;;;30.60;14.98;;;8.60;99.90;;;;;;5019273;28;20092;-66
2022/03/29 07:56:29;;;;;;;23.50;14.10;;;8.60;99.90;;;;;;5018550;28;20825;-67
2022/03/29 07:58:56;;;;;;;31.40;14.25;;;8.60;99.90;;;;;;4987524;28;20120;-67
2022/03/29 08:01:22;;;;;;;31.85;15.02;;;8.70;99.90;;;;;;4988798;28;20091;-66
2022/03/29 08:03:48;;;;;;;29.95;14.80;;;8.70;99.90;;;;;;5037546;28;20155;-66
2022/03/29 08:06:14;;;;;;;26.25;14.07;;;8.80;99.90;;;;;;5020301;28;20163;-66
2022/03/29 08:08:40;;;;;;;27.38;14.77;;;8.90;99.90;;;;;;5020118;28;20135;-66
2022/03/29 08:11:08;;;;;;;25.52;15.77;;;8.90;99.90;;;;;;5019700;28;20071;-66
2022/03/29 08:13:34;;;;;;;26.60;14.50;;;9.10;99.90;;;;;;5021319;28;20710;-66
2022/03/29 08:16:01;;;;;;;27.75;16.38;;;9.20;99.90;;;;;;5037009;28;20045;-66
2022/03/29 08:18:28;;;;;;;27.45;15.27;;;9.30;99.90;;;;;;5035717;28;20587;-67
2022/03/29 08:20:53;;;;;;;27.30;15.93;;;9.40;99.90;;;;;;5037524;28;20070;-67
2022/03/29 08:23:19;;;;;;;31.67;17.52;;;9.50;99.90;;;;;;5036963;28;20044;-66
2022/03/29 08:25:45;;;;;;;28.65;15.50;;;9.60;99.90;;;;;;5036120;28;20074;-67
2022/03/29 08:28:11;;;;;;;29.92;15.90;;;9.60;99.90;;;;;;5036522;28;20147;-66
2022/03/29 08:30:37;;;;;;;28.00;16.73;;;9.70;99.90;;;;;;5018903;28;20098;-66
2022/03/29 08:33:03;;;;;;;25.50;17.30;;;9.80;99.90;;;;;;5019974;28;20057;-66
2022/03/29 08:35:30;;;;;;;23.60;15.40;;;9.70;99.90;;;;;;5038017;28;20048;-67
2022/03/29 08:37:55;;;;;;;24.17;16.35;;;9.90;99.90;;;;;;5037744;28;20147;-66
2022/03/29 08:40:27;;;;;;;26.33;15.30;;;10.00;99.90;;;;;;5035732;28;20040;-66
2022/03/29 08:42:56;;;;;;;23.60;15.70;;;10.10;99.90;;;;;;5038277;28;20068;-66
2022/03/29 08:45:26;;;;;;;28.65;16.05;;;10.10;99.90;;;;;;5017357;28;20049;-66
2022/03/29 08:47:54;;;;;;;29.58;16.17;;;10.10;99.90;;;;;;4297756;28;10000014;-66
2022/03/29 08:50:20;;;;;;;31.63;16.55;;;10.00;99.90;;;;;;5014324;28;20052;-66
2022/03/29 08:52:47;;;;;;;22.08;14.38;;;9.80;99.90;;;;;;5013525;28;20218;-66
2022/03/29 08:55:12;;;;;;;27.95;16.48;;;9.90;99.90;;;;;;5013720;28;20052;-65
2022/03/29 08:57:38;;;;;;;33.25;14.32;;;9.60;99.90;;;;;;4993399;28;20707;-66
2022/03/29 09:00:06;;;;;;;22.67;14.13;;;9.70;99.90;;;;;;5012529;28;20045;-66
2022/03/29 09:02:37;;;;;;;28.02;15.40;;;9.80;99.90;;;;;;5013629;28;20045;-66
2022/03/29 09:05:13;;;;;;;31.00;13.63;;;9.80;99.90;;;;;;5034413;28;20063;-66
2022/03/29 09:07:54;;;;;;;21.40;12.57;;;9.90;99.90;;;;;;5005030;28;20129;-66
2022/03/29 09:10:22;;;;;;;20.83;13.63;;;9.80;99.90;;;;;;4989659;28;20095;-66
2022/03/29 09:12:48;;;;;;;22.05;12.32;;;9.70;99.90;;;;;;5010838;28;20119;-66
2022/03/29 09:15:14;;;;;;;27.95;14.90;;;9.80;99.90;;;;;;5012632;28;20092;-66
2022/03/29 09:17:42;;;;;;;23.60;14.07;;;9.80;99.90;;;;;;5028144;28;20913;-66
2022/03/29 09:20:10;;;;;;;25.10;12.63;;;9.70;99.90;;;;;;5013341;28;20040;-66
2022/03/29 09:22:55;;;;;;;23.15;14.10;;;9.70;99.90;;;;;;5014284;28;20053;-66
2022/03/29 09:25:38;;;;;;;30.08;14.73;;;9.90;99.90;;;;;;5032486;28;20056;-66
2022/03/29 09:28:13;;;;;;;20.88;12.90;;;9.90;99.90;;;;;;5015716;28;20041;-66
2022/03/29 09:30:40;;;;;;;25.67;14.00;;;10.00;99.90;;;;;;5010109;28;20065;-66
2022/03/29 09:33:30;;;;;;;29.58;15.15;;;9.90;99.90;;;;;;5012909;28;20408;-66
2022/03/29 09:36:07;;;;;;;29.20;15.00;;;9.80;99.90;;;;;;5004589;28;20099;-66
2022/03/29 09:38:39;;;;;;;20.63;12.65;;;9.70;99.90;;;;;;5012533;28;20157;-66
2022/03/29 09:41:06;;;;;;;20.77;13.52;;;9.70;99.90;;;;;;5012290;28;20124;-66
2022/03/29 09:43:36;;;;;;;21.80;13.13;;;9.90;99.90;;;;;;5012539;28;20049;-66
2022/03/29 09:46:02;;;;;;;23.05;12.73;;;9.90;99.90;;;;;;5006416;28;20056;-66
2022/03/29 09:48:34;;;;;;;20.20;11.38;;;10.10;99.90;;;;;;5012672;28;20041;-66
2022/03/29 09:51:14;;;;;;;20.63;12.70;;;9.90;99.90;;;;;;4994825;28;20053;-66
2022/03/29 09:53:52;;;;;;;18.30;10.68;;;9.90;99.90;;;;;;4995000;28;20053;-66
2022/03/29 09:56:24;;;;;;;19.17;10.93;;;10.00;99.90;;;;;;5012435;28;20053;-66
2022/03/29 09:59:03;;;;;;;19.88;11.25;;;10.00;99.90;;;;;;4983123;28;20046;-66
2022/03/29 10:01:29;;;;;;;20.13;11.40;;;10.10;99.90;;;;;;4992309;28;20579;-66
2022/03/29 10:03:56;;;;;;;20.75;10.75;;;10.30;99.90;;;;;;4975532;28;20135;-66
2022/03/29 10:06:23;;;;;;;16.50;11.10;;;10.60;99.90;;;;;;4975862;28;20251;-66
2022/03/29 10:11:38;;;;;;;22.80;11.82;;;11.60;99.90;;;;;;5008128;28;20410;-66
2022/03/29 10:14:06;;;;;;;21.75;11.55;;;12.20;99.90;;;;;;4979952;28;20054;-66
2022/03/29 10:16:32;;;;;;;21.65;11.13;;;12.20;99.90;;;;;;4988001;28;20049;-66
2022/03/29 10:18:59;;;;;;;23.90;11.15;;;12.10;99.90;;;;;;5013904;28;20057;-65
2022/03/29 10:21:27;;;;;;;17.63;10.20;;;12.10;99.90;;;;;;5014023;28;20080;-66
2022/03/29 10:23:52;;;;;;;17.35;10.43;;;11.80;99.90;;;;;;5017095;28;20040;-66
2022/03/29 10:26:24;;;;;;;21.23;9.90;;;11.80;99.90;;;;;;5011344;28;20033;-67
2022/03/29 10:28:51;;;;;;;20.50;9.95;;;11.50;99.90;;;;;;5012373;28;20049;-66
2022/03/29 10:31:50;;;;;;;17.55;8.95;;;11.60;99.90;;;;;;5010227;28;20068;-66
2022/03/29 10:34:27;;;;;;;18.70;10.25;;;11.80;99.90;;;;;;4969032;28;20120;-66
2022/03/29 10:37:10;;;;;;;20.90;9.80;;;11.60;99.90;;;;;;5013379;28;20041;-66
2022/03/29 10:39:42;;;;;;;;;;;11.40;99.90;;;;;;5012522;28;20053;-66
2022/03/29 10:42:28;;;;;;;16.25;8.95;;;11.10;99.90;;;;;;5012919;28;19948;-66
2022/03/29 10:44:59;;;;;;;13.65;8.18;;;11.00;99.90;;;;;;5015475;28;20045;-66
2022/03/29 10:47:26;;;;;;;18.65;9.52;;;11.20;99.90;;;;;;5018548;28;20045;-66
2022/03/29 10:49:52;;;;;;;18.48;10.60;;;11.30;99.90;;;;;;4992779;28;20847;-66
2022/03/29 10:52:27;;;;;;;21.67;10.02;;;11.20;99.90;;;;;;4992251;28;20122;-66
2022/03/29 10:55:27;;;;;;;19.35;9.27;;;11.10;99.90;;;;;;4993602;28;20188;-66
2022/03/29 10:58:02;;;;;;;20.80;9.15;;;11.00;99.90;;;;;;5009346;28;20796;-66
2022/03/29 11:00:31;;;;;;;16.10;9.73;;;11.10;99.90;;;;;;4992858;28;20995;-66
2022/03/29 11:03:22;;;;;;;17.33;8.73;;;10.80;99.90;;;;;;4993904;28;20453;-66
2022/03/29 11:06:07;;;;;;;20.27;9.60;;;10.90;99.90;;;;;;5012346;28;20049;-66
2022/03/29 11:09:05;;;;;;;16.55;9.80;;;11.00;99.90;;;;;;5011271;28;20072;-66
2022/03/29 11:11:39;;;;;;;17.45;8.55;;;11.10;99.90;;;;;;5012434;28;20124;-66
2022/03/29 11:14:34;;;;;;;14.88;8.30;;;11.10;99.90;;;;;;4994874;28;20072;-66
2022/03/29 11:17:09;;;;;;;25.00;9.30;;;11.30;99.90;;;;;;5023141;28;20052;-66
2022/03/29 11:19:38;;;;;;;16.20;8.20;;;11.30;99.90;;;;;;5032437;28;20399;-66
2022/03/29 11:22:34;;;;;;;14.98;8.25;;;11.30;99.90;;;;;;5031901;28;20059;-67
2022/03/29 11:25:05;;;;;;;16.02;10.43;;;11.10;99.90;;;;;;5033265;28;20053;-66
2022/03/29 11:27:33;;;;;;;15.68;8.65;;;10.90;99.90;;;;;;5014326;28;20459;-66
2022/03/29 11:30:00;;;;;;;19.20;9.15;;;11.00;99.90;;;;;;5033072;28;20140;-66
2022/03/29 11:32:26;;;;;;;17.10;8.85;;;10.80;99.90;;;;;;5031920;28;20063;-66
2022/03/29 11:34:56;;;;;;;12.38;7.07;;;10.80;99.90;;;;;;5032477;28;20474;-66
2022/03/29 11:37:27;;;;;;;17.05;8.55;;;10.90;99.90;;;;;;5032707;28;20071;-66
2022/03/29 11:39:53;;;;;;;16.10;8.88;;;10.90;99.90;;;;;;5014854;28;20060;-67
2022/03/29 11:42:18;;;;;;;16.55;8.70;;;10.80;99.90;;;;;;5032237;28;20761;-66
2022/03/29 11:44:47;;;;;;;14.65;8.52;;;11.20;99.90;;;;;;5012868;28;20048;-66
2022/03/29 11:47:13;;;;;;;16.55;8.68;;;11.10;99.90;;;;;;5007279;28;20901;-66
2022/03/29 11:49:41;;;;;;;20.80;9.15;;;11.30;99.90;;;;;;4997714;28;20053;-67
2022/03/29 11:52:12;;;;;;;11.90;7.05;;;11.40;99.90;;;;;;4998312;28;20191;-66
2022/03/29 11:54:40;;;;;;;14.43;7.75;;;11.30;99.90;;;;;;4997359;28;20518;-66
2022/03/29 11:57:29;;;;;;;20.63;8.40;;;10.80;99.90;;;;;;5015660;28;20061;-66
2022/03/29 11:59:56;;;;;;;17.67;8.02;;;10.90;99.90;;;;;;4996528;28;20057;-66
2022/03/29 12:02:23;;;;;;;17.52;7.65;;;11.00;99.90;;;;;;4996454;28;20046;-66
2022/03/29 12:04:50;;;;;;;21.95;9.05;;;11.00;99.90;;;;;;4995187;28;20123;-66
2022/03/29 12:07:17;;;;;;;14.05;8.38;;;11.00;99.90;;;;;;4996619;28;20049;-67
2022/03/29 12:09:48;;;;;;;16.10;8.05;;;11.00;99.90;;;;;;4996445;28;20072;-66
2022/03/29 12:12:15;;;;;;;15.55;6.80;;;11.20;99.90;;;;;;4996426;28;20057;-66
2022/03/29 12:14:41;;;;;;;12.45;6.70;;;11.30;99.90;;;;;;4996107;28;20120;-66
2022/03/29 12:17:08;;;;;;;17.65;7.63;;;11.40;99.90;;;;;;5018226;28;20049;-66
2022/03/29 12:19:36;;;;;;;16.10;7.40;;;11.00;99.90;;;;;;5018051;28;20041;-66
2022/03/29 12:22:04;;;;;;;15.23;7.63;;;11.20;99.90;;;;;;5035774;28;20056;-66
2022/03/29 12:24:38;;;;;;;22.00;8.48;;;11.40;99.90;;;;;;5016475;28;20052;-66
2022/03/29 12:27:15;;;;;;;15.57;7.20;;;11.10;99.90;;;;;;5017194;28;20139;-66
2022/03/29 12:29:48;;;;;;;14.52;7.82;;;10.90;99.90;;;;;;5019350;28;20045;-66
2022/03/29 12:32:14;;;;;;;14.53;8.07;;;10.60;99.90;;;;;;5009826;28;20153;-65
2022/03/29 12:34:41;;;;;;;18.50;7.35;;;10.50;99.90;;;;;;4993489;28;21225;-66
2022/03/29 12:37:12;;;;;;;15.77;7.68;;;10.60;99.90;;;;;;4991967;28;20134;-65
2022/03/29 12:39:40;;;;;;;21.00;8.63;;;10.80;99.90;;;;;;4992583;28;20045;-65
2022/03/29 12:42:10;;;;;;;18.15;8.02;;;10.80;99.90;;;;;;5010628;28;20053;-65
2022/03/29 12:44:43;;;;;;;16.48;8.38;;;10.80;99.90;;;;;;5009205;28;20034;-65
2022/03/29 12:47:09;;;;;;;15.38;9.25;;;11.20;99.90;;;;;;4993342;28;20672;-65
2022/03/29 12:49:36;;;;;;;13.57;8.02;;;11.40;99.90;;;;;;4994075;28;20076;-65